Impacts METAR Board INFO
IDs:

KMDW - Chicago/Midway Intl, IL, US

Updated at: 1705 UTC 20 Jan 2018
Potential Impact None Slight Moderate High
Time20/05Z 20/06Z 20/07Z 20/08Z 20/09Z 20/10Z 20/11Z 20/12Z 20/13Z 20/14Z 20/15Z 20/16Z 20/17Z
VIS10 10 10 10 10 10 10 10 10 10 10 10 10
CIG250 300 300 200 200 300 300 250 250 250 250 250 250
CoverOVCOVCOVCBKNBKNBKNBKNBKNBKNBKNBKNBKNBKN
FltCatVFRVFRVFRVFRVFRVFRVFRVFRVFRVFRVFRVFRVFR
WX--------------------------
WDir220220220230230220230210210210200230220
WSpd14 16 13 11 9 8 8 7 7 7 8 9 8
WGst20 23 -- -- -- -- -- -- -- -- -- -- --
Raw hourly METARs
KMDW 200453Z 22014G20KT 10SM OVC250 04/M02 A2979 RMK AO2 SLP096 T00441017
KMDW 200553Z 22016G23KT 10SM SCT250 OVC300 04/M02 A2979 RMK AO2 SLP097 T00391017 10044 20033 400441022 51017
KMDW 200653Z 22013KT 10SM SCT250 OVC300 03/M02 A2980 RMK AO2 SLP098 T00331022
KMDW 200753Z 23011KT 10SM BKN200 03/M02 A2982 RMK AO2 SLP105 T00331022
KMDW 200853Z 23009KT 10SM BKN200 03/M02 A2983 RMK AO2 SLP108 T00331022 53010
KMDW 200953Z 22008KT 10SM BKN300 03/M02 A2984 RMK AO2 SLP111 T00281022
KMDW 201053Z 23008KT 10SM BKN300 02/M02 A2985 RMK AO2 SLP117 T00221022
KMDW 201153Z 21007KT 10SM BKN250 02/M02 A2987 RMK AO2 SLP123 T00171022 10039 20017 53014
KMDW 201253Z 21007KT 10SM BKN250 01/M03 A2989 RMK AO2 SLP129 T00061028
KMDW 201353Z 21007KT 10SM BKN250 01/M02 A2991 RMK AO2 SLP137 T00111022
KMDW 201453Z 20008KT 10SM BKN250 02/M02 A2993 RMK AO2 SLP144 T00221017 53021
KMDW 201553Z 23009KT 10SM BKN250 04/M01 A2995 RMK AO2 SLP147 T00441011
KMDW 201653Z 22008KT 10SM FEW150 BKN250 06/M01 A2995 RMK AO2 SLP148 T00561006